Time;durP1;ratioP1;P1;durP2;ratioP2;P2;SDS_P1;SDS_P2;PMS_P1;PMS_P2;Temp;Humidity;BMP_temperature;BMP_pressure;BME280_temperature;BME280_humidity;BME280_pressure;Samples;Min_cycle;Max_cycle;Signal;HPM_P1;HPM_P2
2023/02/15 00:01:36;;;;;;;;;;;;;;;28.29;65.73;101069.88;5098036;27;65187;-38
2023/02/15 00:04:07;;;;;;;;;;;;;;;28.33;65.97;101073.81;5101339;27;69735;-39
2023/02/15 00:06:37;;;;;;;;;;;;;;;28.36;66.13;101084.25;5099469;27;67573;-38
2023/02/15 00:09:08;;;;;;;;;;;;;;;28.39;66.37;101089.25;5096497;27;70121;-38
2023/02/15 00:12:13;;;;;;;;;;;;;;;28.42;66.91;101088.88;5080688;27;66214;-38
2023/02/15 00:14:35;;;;;;;;;;;;;;;28.49;67.70;101092.44;5089181;27;70828;-38
2023/02/15 00:17:05;;;;;;;;;;;;;;;28.51;67.33;101092.25;5100042;27;66909;-39
2023/02/15 00:19:35;;;;;;;;;;;;;;;28.54;67.20;101101.81;5101820;27;69945;-38
2023/02/15 00:22:06;;;;;;;;;;;;;;;28.59;66.73;101100.19;5080253;27;65571;-37
2023/02/15 00:24:36;;;;;;;;;;;;;;;28.67;67.15;101109.97;5100302;27;70082;-38
2023/02/15 00:27:06;;;;;;;;;;;;;;;28.70;66.27;101112.28;5093996;27;65781;-38
2023/02/15 00:29:36;;;;;;;;;;;;;;;28.69;66.45;101113.28;5078236;27;70345;-37
2023/02/15 00:32:06;;;;;;;;;;;;;;;28.70;66.05;101109.56;5098757;27;66666;-37
2023/02/15 00:34:36;;;;;;;;;;;;;;;28.68;66.08;101120.56;5080646;27;69403;-37
2023/02/15 00:37:06;;;;;;;;;;;;;;;28.77;65.79;101117.69;5092336;27;66442;-37
2023/02/15 00:39:36;;;;;;;;;;;;;;;28.90;66.31;101124.00;5082302;27;68622;-36
2023/02/15 00:42:06;;;;;;;;;;;;;;;28.92;64.87;101121.94;5091408;27;66253;-37
2023/02/15 00:44:36;;;;;;;;;;;;;;;28.89;64.38;101134.97;5073094;27;70048;-38
2023/02/15 00:47:06;;;;;;;;;;;;;;;28.85;63.55;101129.16;5067554;27;65672;-38
2023/02/15 00:49:36;;;;;;;;;;;;;;;28.85;63.48;101133.72;5085054;27;70536;-38
2023/02/15 00:52:06;;;;;;;;;;;;;;;28.85;63.38;101137.25;5080621;27;66116;-37
2023/02/15 00:54:38;;;;;;;;;;;;;;;28.86;62.69;101138.94;5058228;27;70494;-39
2023/02/15 00:57:08;;;;;;;;;;;;;;;28.88;62.64;101136.84;5073879;27;66380;-39
2023/02/15 00:59:38;;;;;;;;;;;;;;;28.88;62.79;101130.63;5091839;27;69662;-38
2023/02/15 01:02:08;;;;;;;;;;;;;;;28.89;62.40;101137.69;5089337;27;65413;-38
2023/02/15 01:04:38;;;;;;;;;;;;;;;28.90;62.26;101136.66;5081851;27;69988;-38
2023/02/15 01:07:08;;;;;;;;;;;;;;;28.91;61.97;101136.44;5092804;27;66465;-40
2023/02/15 01:09:38;;;;;;;;;;;;;;;28.91;61.97;101141.84;5094939;27;69756;-37
2023/02/15 01:12:09;;;;;;;;;;;;;;;28.93;61.84;101155.16;5079443;27;66646;-38
2023/02/15 01:14:39;;;;;;;;;;;;;;;28.94;61.52;101149.53;5092524;27;69142;-39
2023/02/15 01:17:09;;;;;;;;;;;;;;;28.94;61.20;101157.66;5074652;27;65932;-37
2023/02/15 01:19:39;;;;;;;;;;;;;;;28.94;61.65;101151.41;5092074;27;70512;-37
2023/02/15 01:22:09;;;;;;;;;;;;;;;28.96;61.42;101161.00;5094803;27;66524;-38
2023/02/15 01:24:39;;;;;;;;;;;;;;;29.00;61.33;101171.38;5090719;27;70282;-38
2023/02/15 01:27:09;;;;;;;;;;;;;;;29.00;60.82;101166.81;5083510;27;66884;-39
2023/02/15 01:29:43;;;;;;;;;;;;;;;29.00;60.76;101177.63;5082087;27;69965;-38
2023/02/15 01:32:13;;;;;;;;;;;;;;;29.01;60.51;101176.59;5081392;27;66655;-37
2023/02/15 01:34:44;;;;;;;;;;;;;;;29.03;60.44;101181.78;5080809;27;70310;-38
2023/02/15 01:37:14;;;;;;;;;;;;;;;29.02;60.80;101186.34;5085953;27;67002;-39
2023/02/15 01:39:44;;;;;;;;;;;;;;;29.04;60.56;101188.91;5078729;27;69872;-38
2023/02/15 01:42:20;;;;;;;;;;;;;;;29.04;60.26;101194.31;5081717;27;67400;-38
2023/02/15 01:44:52;;;;;;;;;;;;;;;29.06;60.31;101192.22;5095508;27;69996;-37
2023/02/15 01:47:32;;;;;;;;;;;;;;;29.07;60.20;101193.91;5080945;27;65081;-38
2023/02/15 01:50:22;;;;;;;;;;;;;;;29.09;60.07;101186.44;5093809;27;69859;-37
2023/02/15 01:52:57;;;;;;;;;;;;;;;29.11;60.39;101196.00;5094655;27;66316;-38
2023/02/15 01:55:29;;;;;;;;;;;;;;;29.13;59.92;101195.78;5099623;27;69971;-37
2023/02/15 01:58:00;;;;;;;;;;;;;;;29.14;60.14;101198.31;5096463;27;65795;-38
2023/02/15 02:00:31;;;;;;;;;;;;;;;29.17;60.11;101194.38;5096636;27;70497;-39
2023/02/15 02:03:02;;;;;;;;;;;;;;;29.18;59.78;101209.53;5079483;27;66736;-38
2023/02/15 02:05:33;;;;;;;;;;;;;;;29.20;59.99;101188.56;5096292;27;71260;-37
2023/02/15 02:08:03;;;;;;;;;;;;;;;29.22;59.99;101202.69;5089951;27;66285;-38
2023/02/15 02:10:33;;;;;;;;;;;;;;;29.25;59.37;101196.88;5071083;27;70607;-39
2023/02/15 02:13:04;;;;;;;;;;;;;;;29.26;59.38;101190.47;5058640;27;65744;-39
2023/02/15 02:16:00;;;;;;;;;;;;;;;29.26;59.75;101192.31;5096113;27;70476;-38
2023/02/15 02:18:36;;;;;;;;;;;;;;;29.30;59.76;101188.16;5063956;27;66976;-38
2023/02/15 02:21:09;;;;;;;;;;;;;;;29.30;59.27;101194.41;5098267;27;69939;-39
2023/02/15 02:23:39;;;;;;;;;;;;;;;29.32;59.41;101195.03;5098271;27;66374;-38
2023/02/15 02:26:09;;;;;;;;;;;;;;;29.34;59.44;101187.56;5076715;27;70525;-39
2023/02/15 02:28:58;;;;;;;;;;;;;;;29.35;58.94;101191.09;5093317;27;66369;-37
2023/02/15 02:31:37;;;;;;;;;;;;;;;29.37;59.45;101192.56;5074366;27;70094;-40
2023/02/15 02:34:16;;;;;;;;;;;;;;;29.39;58.96;101193.22;5073719;27;66718;-39
2023/02/15 02:36:49;;;;;;;;;;;;;;;29.40;58.75;101189.47;5075900;27;69834;-38
2023/02/15 02:39:38;;;;;;;;;;;;;;;29.43;59.17;101188.22;5077714;27;66914;-39
2023/02/15 02:42:18;;;;;;;;;;;;;;;29.46;58.67;101192.41;5095397;27;69807;-39
2023/02/15 02:45:02;;;;;;;;;;;;;;;29.47;59.01;101194.06;5094899;27;65538;-39
2023/02/15 02:47:36;;;;;;;;;;;;;;;29.50;58.67;101194.47;5093030;27;70497;-38
2023/02/15 02:50:09;;;;;;;;;;;;;;;29.50;58.68;101194.47;5088916;27;67190;-39
2023/02/15 02:52:49;;;;;;;;;;;;;;;29.53;58.94;101198.63;5084212;27;70394;-38
2023/02/15 02:55:23;;;;;;;;;;;;;;;29.56;58.48;101198.22;5080357;27;65435;-39
2023/02/15 02:58:02;;;;;;;;;;;;;;;29.57;58.39;101183.69;5065806;27;70309;-37
2023/02/15 03:00:36;;;;;;;;;;;;;;;29.59;58.46;101182.44;5078953;27;65904;-37
2023/02/15 03:03:09;;;;;;;;;;;;;;;29.62;58.29;101178.50;5087822;27;69896;-38
2023/02/15 03:05:43;;;;;;;;;;;;;;;29.64;58.42;101173.75;5097327;27;66632;-39
2023/02/15 03:08:21;;;;;;;;;;;;;;;29.66;58.35;101177.06;5094798;27;70436;-39
2023/02/15 03:10:55;;;;;;;;;;;;;;;29.69;58.24;101165.84;5078052;27;66798;-38
2023/02/15 03:13:25;;;;;;;;;;;;;;;29.70;58.44;101154.03;5097116;27;70528;-39
2023/02/15 03:18:52;;;;;;;;;;;;;;;29.74;58.43;101149.03;5097218;27;69618;-38
2023/02/15 03:21:25;;;;;;;;;;;;;;;29.76;57.96;101150.47;5089935;27;65564;-38
2023/02/15 03:24:01;;;;;;;;;;;;;;;29.79;57.99;101143.84;5081053;27;70579;-38
2023/02/15 03:26:34;;;;;;;;;;;;;;;29.80;58.05;101138.19;5091531;27;66716;-38
2023/02/15 03:29:06;;;;;;;;;;;;;;;29.83;57.66;101137.78;5087115;27;69577;-39
2023/02/15 03:31:38;;;;;;;;;;;;;;;29.85;58.18;101126.78;5098805;27;66684;-39
2023/02/15 03:34:11;;;;;;;;;;;;;;;29.89;57.90;101116.38;5095481;27;70569;-38
2023/02/15 03:36:42;;;;;;;;;;;;;;;29.91;57.57;101108.88;5094627;27;67056;-38
2023/02/15 03:39:32;;;;;;;;;;;;;;;29.93;57.96;101107.63;5088818;27;70772;-38
2023/02/15 03:42:29;;;;;;;;;;;;;;;29.96;57.79;101107.22;5078031;27;64931;-38
2023/02/15 03:45:05;;;;;;;;;;;;;;;30.00;57.37;101100.34;5076114;27;69561;-39
2023/02/15 03:47:42;;;;;;;;;;;;;;;30.02;57.80;101100.13;5098473;27;66769;-38
2023/02/15 03:53:10;;;;;;;;;;;;;;;30.06;57.59;101077.03;5089847;27;66318;-38
2023/02/15 03:55:41;;;;;;;;;;;;;;;30.08;56.95;101077.66;5079481;27;70047;-39
2023/02/15 04:03:55;;;;;;;;;;;;;;;30.16;56.63;101061.19;5096548;27;67005;-38
2023/02/15 04:06:25;;;;;;;;;;;;;;;30.18;56.59;101059.13;5096877;27;70801;-38
2023/02/15 04:11:57;;;;;;;;;;;;;;;30.25;56.85;101045.59;5043762;27;69716;-39
2023/02/15 04:17:16;;;;;;;;;;;;;;;30.29;56.59;101036.03;5093122;27;70267;-39
2023/02/15 04:25:24;;;;;;;;;;;;;;;30.37;56.29;101032.22;5081655;27;66029;-39
2023/02/15 04:27:55;;;;;;;;;;;;;;;30.39;56.28;101035.56;5094112;27;70103;-39
2023/02/15 04:30:26;;;;;;;;;;;;;;;30.41;55.90;101028.06;5094295;27;65947;-42
2023/02/15 04:32:58;;;;;;;;;;;;;;;30.43;56.25;101023.28;5053638;27;69468;-39
2023/02/15 04:35:28;;;;;;;;;;;;;;;30.44;56.21;101016.81;5095070;27;67012;-39
2023/02/15 04:37:58;;;;;;;;;;;;;;;30.46;56.20;101022.84;5095811;27;70138;-39
2023/02/15 04:40:29;;;;;;;;;;;;;;;30.48;56.09;101023.47;5097676;27;65484;-39
2023/02/15 04:42:59;;;;;;;;;;;;;;;30.49;56.39;101031.38;5084775;27;69625;-38
2023/02/15 04:45:29;;;;;;;;;;;;;;;30.52;55.89;101024.69;5091284;27;65382;-39
2023/02/15 04:47:59;;;;;;;;;;;;;;;30.52;56.04;101019.28;5099167;27;70271;-37
2023/02/15 04:50:29;;;;;;;;;;;;;;;30.53;55.73;101001.97;5083065;27;67458;-38
2023/02/15 04:53:00;;;;;;;;;;;;;;;30.56;55.93;101006.13;5095578;27;70320;-38
2023/02/15 04:55:30;;;;;;;;;;;;;;;30.56;55.89;101006.97;5101010;27;67520;-40
2023/02/15 04:58:00;;;;;;;;;;;;;;;30.57;55.83;101005.13;5076794;27;70776;-38
2023/02/15 05:00:31;;;;;;;;;;;;;;;30.60;55.96;100999.25;5096510;27;66026;-41
2023/02/15 05:03:01;;;;;;;;;;;;;;;30.30;56.11;100944.84;5095561;27;70349;-38
2023/02/15 05:05:31;;;;;;;;;;;;;;;30.63;55.84;100983.41;5092088;27;66077;-39
2023/02/15 05:08:03;;;;;;;;;;;;;;;30.64;55.81;100995.06;5089627;27;68964;-40
2023/02/15 05:10:33;;;;;;;;;;;;;;;30.64;55.95;100971.53;5086485;27;66779;-38
2023/02/15 05:13:03;;;;;;;;;;;;;;;30.65;55.69;100965.09;5088530;27;70441;-37
2023/02/15 05:15:33;;;;;;;;;;;;;;;30.67;55.80;100973.81;5093088;27;66004;-38
2023/02/15 05:18:03;;;;;;;;;;;;;;;30.68;56.15;100970.06;5092991;27;70568;-38
2023/02/15 05:20:33;;;;;;;;;;;;;;;30.69;56.10;100960.88;5091741;27;67511;-38
2023/02/15 05:23:04;;;;;;;;;;;;;;;30.71;55.97;100956.09;5095896;27;70029;-39
2023/02/15 05:28:22;;;;;;;;;;;;;;;30.76;55.51;100944.59;5094427;27;70296;-39
2023/02/15 05:31:08;;;;;;;;;;;;;;;30.80;55.87;100942.31;5083790;27;66798;-38
2023/02/15 05:33:39;;;;;;;;;;;;;;;30.82;55.94;100932.09;5093430;27;69195;-39
2023/02/15 05:36:10;;;;;;;;;;;;;;;30.84;56.01;100929.97;5074657;27;65382;-38
2023/02/15 05:38:40;;;;;;;;;;;;;;;30.86;55.32;100936.03;5077170;27;70264;-37
2023/02/15 05:41:11;;;;;;;;;;;;;;;30.89;55.74;100927.44;5096694;27;66063;-38
2023/02/15 05:43:41;;;;;;;;;;;;;;;30.91;55.30;100919.94;5087401;27;70428;-40
2023/02/15 05:46:12;;;;;;;;;;;;;;;30.93;55.35;100912.44;5087164;27;66001;-37
2023/02/15 05:48:42;;;;;;;;;;;;;;;30.95;55.40;100910.31;5069258;27;69599;-38
2023/02/15 05:51:13;;;;;;;;;;;;;;;30.98;55.50;100920.75;5090055;27;66123;-38
2023/02/15 05:53:44;;;;;;;;;;;;;;;30.99;55.30;100898.00;5086199;27;70385;-39
2023/02/15 05:56:14;;;;;;;;;;;;;;;31.01;55.19;100895.91;5094149;27;65243;-40
2023/02/15 05:58:44;;;;;;;;;;;;;;;31.03;55.28;100885.66;5090317;27;69668;-39
2023/02/15 06:01:17;;;;;;;;;;;;;;;31.06;54.92;100897.94;5066753;27;66817;-37
2023/02/15 06:03:48;;;;;;;;;;;;;;;31.07;54.90;100886.91;5098516;27;69705;-38
2023/02/15 06:06:18;;;;;;;;;;;;;;;31.09;55.32;100879.38;5090537;27;66674;-38
2023/02/15 06:08:49;;;;;;;;;;;;;;;31.11;55.17;100871.84;5068733;27;68999;-38
2023/02/15 06:11:19;;;;;;;;;;;;;;;31.12;54.73;100868.09;5064946;27;66677;-37
2023/02/15 06:13:49;;;;;;;;;;;;;;;31.14;54.74;100871.38;5081862;27;70019;-37
2023/02/15 06:16:19;;;;;;;;;;;;;;;31.15;54.71;100862.22;5086917;27;66946;-38
2023/02/15 06:18:49;;;;;;;;;;;;;;;31.16;54.89;100855.75;5091837;27;69750;-38
2023/02/15 06:21:21;;;;;;;;;;;;;;;31.21;54.67;100854.25;5087061;27;65245;-40
2023/02/15 06:23:51;;;;;;;;;;;;;;;31.23;54.49;100852.13;5071855;27;69927;-39
2023/02/15 06:26:21;;;;;;;;;;;;;;;31.25;54.23;100850.88;5086244;27;64965;-39
2023/02/15 06:28:51;;;;;;;;;;;;;;;31.27;54.39;100842.53;5088100;27;70312;-37
2023/02/15 06:31:21;;;;;;;;;;;;;;;31.29;54.39;100840.44;5070502;27;65230;-38
2023/02/15 06:33:51;;;;;;;;;;;;;;;31.32;54.47;100826.44;5089784;27;70189;-38
2023/02/15 06:36:21;;;;;;;;;;;;;;;31.35;54.23;100828.69;5093832;27;65427;-38
2023/02/15 06:38:51;;;;;;;;;;;;;;;31.38;54.33;100822.84;5062780;27;68913;-38
2023/02/15 06:41:22;;;;;;;;;;;;;;;31.40;54.39;100812.59;5090865;27;66134;-39
2023/02/15 06:43:52;;;;;;;;;;;;;;;31.43;53.76;100814.88;5068544;27;69895;-38
2023/02/15 06:46:22;;;;;;;;;;;;;;;31.46;53.84;100808.16;5073240;27;66231;-38
2023/02/15 06:48:52;;;;;;;;;;;;;;;31.51;53.49;100802.88;5076526;27;69793;-38
2023/02/15 06:51:22;;;;;;;;;;;;;;;31.54;53.59;100805.97;5084420;27;66757;-39
2023/02/15 06:53:52;;;;;;;;;;;;;;;31.56;53.54;100803.84;5073885;27;69795;-38
2023/02/15 06:56:23;;;;;;;;;;;;;;;31.60;53.49;100796.09;5078872;27;66265;-38
2023/02/15 06:58:53;;;;;;;;;;;;;;;31.61;53.33;100798.56;5093197;27;69148;-38
2023/02/15 07:01:23;;;;;;;;;;;;;;;31.65;53.53;100789.97;5082066;27;66709;-39
2023/02/15 07:03:53;;;;;;;;;;;;;;;31.68;53.17;100786.81;5096098;27;70125;-37
2023/02/15 07:06:24;;;;;;;;;;;;;;;31.70;53.04;100771.16;5090373;27;67075;-38
2023/02/15 07:08:54;;;;;;;;;;;;;;;31.73;53.05;100776.13;5093204;27;70452;-38
2023/02/15 07:14:12;;;;;;;;;;;;;;;31.78;53.01;100768.94;5089400;27;69765;-38
2023/02/15 07:16:42;;;;;;;;;;;;;;;31.80;52.91;100763.31;5093544;27;66297;-38
2023/02/15 07:19:12;;;;;;;;;;;;;;;31.83;52.92;100771.81;5084713;27;69481;-40
2023/02/15 07:21:45;;;;;;;;;;;;;;;31.85;52.90;100774.28;5091327;27;66242;-38
2023/02/15 07:24:15;;;;;;;;;;;;;;;31.88;52.91;100773.84;5086499;27;69794;-37
2023/02/15 07:26:45;;;;;;;;;;;;;;;31.90;52.97;100776.31;5085296;27;66518;-38
2023/02/15 07:29:15;;;;;;;;;;;;;;;31.93;52.84;100770.44;5089710;27;69855;-37
2023/02/15 07:31:45;;;;;;;;;;;;;;;31.95;52.60;100774.59;5088648;27;65699;-44
2023/02/15 07:34:16;;;;;;;;;;;;;;;31.98;52.61;100768.72;5085491;27;70512;-38
2023/02/15 07:36:46;;;;;;;;;;;;;;;32.02;52.36;100764.47;5087113;27;66205;-38
2023/02/15 07:39:17;;;;;;;;;;;;;;;32.04;52.57;100756.94;5059707;27;70306;-38
2023/02/15 07:41:47;;;;;;;;;;;;;;;32.09;52.32;100766.25;5090801;27;67113;-38
2023/02/15 07:44:18;;;;;;;;;;;;;;;32.13;52.41;100764.75;5091656;27;70324;-37
2023/02/15 07:46:49;;;;;;;;;;;;;;;32.15;52.21;100758.03;5087589;27;66656;-38
2023/02/15 07:49:19;;;;;;;;;;;;;;;32.19;52.56;100758.41;5090914;27;70109;-38
2023/02/15 07:51:49;;;;;;;;;;;;;;;32.21;52.41;100759.00;5091857;27;66148;-38
2023/02/15 07:54:19;;;;;;;;;;;;;;;32.23;52.16;100759.56;5091572;27;70280;-38
2023/02/15 07:56:49;;;;;;;;;;;;;;;32.26;52.10;100759.09;5093418;27;66805;-39
2023/02/15 07:59:19;;;;;;;;;;;;;;;32.29;52.13;100758.66;5094249;27;70016;-38
2023/02/15 08:01:49;;;;;;;;;;;;;;;32.32;52.02;100762.78;5068974;27;67185;-37
2023/02/15 08:04:19;;;;;;;;;;;;;;;32.35;52.05;100765.88;5073574;27;70205;-38
2023/02/15 08:06:51;;;;;;;;;;;;;;;32.38;52.04;100765.41;5090148;27;67126;-39
2023/02/15 08:09:22;;;;;;;;;;;;;;;32.42;52.20;100768.47;5086619;27;69711;-41
2023/02/15 08:11:52;;;;;;;;;;;;;;;32.44;52.16;100761.75;5070374;27;65646;-38
2023/02/15 08:14:23;;;;;;;;;;;;;;;32.49;52.04;100764.63;5081474;27;69899;-38
2023/02/15 08:16:57;;;;;;;;;;;;;;;32.53;51.89;100764.16;5088946;27;66547;-38
2023/02/15 08:19:29;;;;;;;;;;;;;;;32.56;51.94;100763.69;5085292;27;70609;-39
2023/02/15 08:22:01;;;;;;;;;;;;;;;32.59;51.86;100766.75;5092969;27;67047;-39
2023/02/15 08:24:32;;;;;;;;;;;;;;;32.64;51.89;100768.75;5093385;27;69666;-39
2023/02/15 08:27:03;;;;;;;;;;;;;;;32.67;51.90;100771.00;5092698;27;66751;-38
2023/02/15 08:29:35;;;;;;;;;;;;;;;32.69;51.88;100763.47;5089497;27;70206;-37
2023/02/15 08:32:06;;;;;;;;;;;;;;;32.72;51.78;100761.09;5101347;27;67457;-38
2023/02/15 08:34:39;;;;;;;;;;;;;;;32.75;51.73;100761.69;5098544;27;69037;-38
2023/02/15 08:37:09;;;;;;;;;;;;;;;32.78;51.88;100756.59;5089655;27;66097;-38
2023/02/15 08:39:39;;;;;;;;;;;;;;;32.81;51.82;100755.31;5078465;27;70664;-39
2023/02/15 08:42:09;;;;;;;;;;;;;;;32.84;51.85;100755.66;5091651;27;65879;-38
2023/02/15 08:44:39;;;;;;;;;;;;;;;32.87;51.61;100760.59;5087547;27;68866;-39
2023/02/15 08:47:09;;;;;;;;;;;;;;;32.89;51.48;100757.66;5095425;27;64813;-39
2023/02/15 08:49:40;;;;;;;;;;;;;;;32.94;51.75;100764.03;5093184;27;70546;-38
2023/02/15 08:52:10;;;;;;;;;;;;;;;32.97;51.57;100754.59;5094142;27;65513;-38
2023/02/15 08:54:40;;;;;;;;;;;;;;;33.00;51.86;100758.75;5077148;27;70039;-38
2023/02/15 08:57:10;;;;;;;;;;;;;;;33.04;51.57;100759.91;5089145;27;66237;-39
2023/02/15 08:59:41;;;;;;;;;;;;;;;33.07;51.76;100771.16;5089791;27;70018;-38
2023/02/15 09:02:11;;;;;;;;;;;;;;;33.11;51.44;100776.94;5097972;27;66888;-39
2023/02/15 09:04:41;;;;;;;;;;;;;;;33.12;51.45;100773.97;5091546;27;69389;-38
2023/02/15 09:07:11;;;;;;;;;;;;;;;33.17;51.56;100775.97;5086674;27;65585;-38
2023/02/15 09:09:42;;;;;;;;;;;;;;;33.20;51.33;100775.50;5086784;27;69958;-37
2023/02/15 09:12:12;;;;;;;;;;;;;;;33.24;51.40;100776.69;5093608;27;66566;-39
2023/02/15 09:14:42;;;;;;;;;;;;;;;33.27;51.42;100780.81;5097054;27;69940;-39
2023/02/15 09:17:13;;;;;;;;;;;;;;;33.30;51.36;100773.00;5060280;27;64922;-38
2023/02/15 09:19:43;;;;;;;;;;;;;;;33.13;51.79;100775.63;5094238;27;69989;-38
2023/02/15 09:22:13;;;;;;;;;;;;;;;32.96;53.11;100768.41;5092485;27;65736;-38
2023/02/15 09:24:43;;;;;;;;;;;;;;;32.83;53.75;100769.47;5090998;27;70176;-39
2023/02/15 09:27:13;;;;;;;;;;;;;;;32.33;53.91;100702.00;5094942;27;65780;-39
2023/02/15 09:29:44;;;;;;;;;;;;;;;32.67;54.17;100771.81;5093269;27;69630;-38
2023/02/15 09:32:17;;;;;;;;;;;;;;;32.65;54.75;100781.28;5095995;27;65657;-38
2023/02/15 09:34:48;;;;;;;;;;;;;;;32.61;54.75;100777.38;5089212;27;69825;-37
2023/02/15 09:37:18;;;;;;;;;;;;;;;32.58;54.91;100772.41;5088427;27;67204;-39
2023/02/15 09:39:48;;;;;;;;;;;;;;;32.58;54.94;100773.25;5087419;27;70564;-39
2023/02/15 09:42:37;;;;;;;;;;;;;;;32.55;55.13;100778.31;5092895;27;66660;-39
2023/02/15 09:45:10;;;;;;;;;;;;;;;32.74;55.17;100779.88;5095138;27;70769;-38
2023/02/15 09:47:41;;;;;;;;;;;;;;;32.91;54.40;100786.25;5095889;27;66046;-38
2023/02/15 09:50:11;;;;;;;;;;;;;;;32.87;54.21;100766.03;5082819;27;70657;-38
2023/02/15 09:52:59;;;;;;;;;;;;;;;33.09;53.63;100784.50;5096546;27;66577;-38
2023/02/15 09:55:35;;;;;;;;;;;;;;;33.17;53.60;100795.00;5067479;27;70364;-38
2023/02/15 09:58:14;;;;;;;;;;;;;;;33.22;53.49;100803.28;5070795;27;66748;-39
2023/02/15 10:00:50;;;;;;;;;;;;;;;33.26;53.07;100803.63;5071882;27;69825;-38
2023/02/15 10:03:34;;;;;;;;;;;;;;;33.29;53.20;100812.16;5073377;27;66621;-38
2023/02/15 10:06:44;;;;;;;;;;;;;;;33.32;52.97;100811.66;5069595;27;70326;-38
2023/02/15 10:09:14;;;;;;;;;;;;;;;33.36;52.81;100812.00;5049476;28;65896;-37
2023/02/15 10:11:58;;;;;;;;;;;;;;;33.36;53.04;100822.88;5069331;27;70599;-39
2023/02/15 10:14:43;;;;;;;;;;;;;;;33.36;52.81;100817.44;5082704;27;68069;-37
2023/02/15 10:17:27;;;;;;;;;;;;;;;33.38;52.56;100829.75;5075151;27;69528;-37
2023/02/15 10:20:00;;;;;;;;;;;;;;;33.38;52.32;100837.91;5070740;27;66622;-37
2023/02/15 10:22:39;;;;;;;;;;;;;;;33.40;52.18;100834.09;5069613;27;70115;-39
2023/02/15 10:25:20;;;;;;;;;;;;;;;33.40;52.17;100831.38;5076355;27;65666;-37
2023/02/15 10:27:51;;;;;;;;;;;;;;;33.38;52.29;100826.19;5090434;27;69886;-39
2023/02/15 10:30:21;;;;;;;;;;;;;;;33.38;52.11;100832.47;5086143;27;66345;-37
2023/02/15 10:32:57;;;;;;;;;;;;;;;33.38;52.03;100832.47;5077173;27;69347;-38
2023/02/15 10:35:47;;;;;;;;;;;;;;;33.37;52.03;100832.69;5073148;27;66457;-39
2023/02/15 10:38:28;;;;;;;;;;;;;;;33.28;51.95;100837.66;5066545;27;69955;-37
2023/02/15 10:40:59;;;;;;;;;;;;;;;32.93;52.91;100824.88;5078624;27;66756;-37
2023/02/15 10:43:48;;;;;;;;;;;;;;;32.75;53.20;100844.00;5067713;27;69824;-36
2023/02/15 10:46:36;;;;;;;;;;;;;;;32.59;53.95;100844.66;5063767;27;66106;-37
2023/02/15 10:49:20;;;;;;;;;;;;;;;32.48;54.53;100849.88;5066780;27;69835;-37
2023/02/15 10:51:59;;;;;;;;;;;;;;;32.43;54.63;100856.97;5067398;27;66897;-37
2023/02/15 10:54:37;;;;;;;;;;;;;;;32.35;55.61;100852.72;5081146;27;69085;-37
2023/02/15 10:57:10;;;;;;;;;;;;;;;32.29;56.18;100856.38;5087305;27;66862;-38
2023/02/15 10:59:59;;;;;;;;;;;;;;;32.26;56.66;100846.81;5084059;27;70472;-38
2023/02/15 11:02:34;;;;;;;;;;;;;;;32.17;57.90;100856.31;5072705;27;65860;-38
2023/02/15 11:05:24;;;;;;;;;;;;;;;32.11;57.70;100856.41;5083809;27;70073;-38
2023/02/15 11:07:59;;;;;;;;;;;;;;;32.09;57.97;100861.22;5089910;27;66268;-39
2023/02/15 11:10:30;;;;;;;;;;;;;;;32.03;58.33;100869.22;5086613;27;70087;-39
2023/02/15 11:13:03;;;;;;;;;;;;;;;31.97;57.62;100870.16;5091531;27;66861;-39
2023/02/15 11:15:52;;;;;;;;;;;;;;;31.96;57.54;100879.34;5087943;27;69964;-39
2023/02/15 11:18:32;;;;;;;;;;;;;;;31.95;57.89;100883.09;5088893;27;66004;-39
2023/02/15 11:21:06;;;;;;;;;;;;;;;31.92;58.22;100886.28;5087610;27;69714;-38
2023/02/15 11:23:44;;;;;;;;;;;;;;;31.93;57.97;100885.25;5088830;27;65569;-39
2023/02/15 11:26:17;;;;;;;;;;;;;;;32.15;57.63;100887.44;5068716;27;69802;-41
2023/02/15 11:28:48;;;;;;;;;;;;;;;32.28;57.69;100892.72;5091195;27;65502;-40
2023/02/15 11:31:25;;;;;;;;;;;;;;;32.36;57.71;100889.66;5090666;27;69955;-41
2023/02/15 11:33:58;;;;;;;;;;;;;;;32.42;57.83;100899.59;5087836;27;66328;-39
2023/02/15 11:36:33;;;;;;;;;;;;;;;32.46;57.70;100900.84;5088236;27;70683;-39
2023/02/15 11:39:15;;;;;;;;;;;;;;;32.53;57.68;100910.78;5090788;27;67357;-40
2023/02/15 11:41:49;;;;;;;;;;;;;;;32.54;57.84;100907.00;5089569;27;69517;-40
2023/02/15 11:44:48;;;;;;;;;;;;;;;32.57;57.49;100911.97;5089508;27;66177;-39
2023/02/15 11:47:19;;;;;;;;;;;;;;;32.58;57.54;100921.78;5037325;27;70601;-40
2023/02/15 11:49:50;;;;;;;;;;;;;;;32.58;57.54;100913.63;5091946;27;65522;-39
2023/02/15 11:52:20;;;;;;;;;;;;;;;32.59;57.33;100920.72;5097698;27;69961;-39
2023/02/15 11:54:51;;;;;;;;;;;;;;;32.58;57.10;100914.47;5096505;27;65690;-39
2023/02/15 11:57:21;;;;;;;;;;;;;;;32.58;57.04;100924.50;5096351;27;70228;-40
2023/02/15 12:00:11;;;;;;;;;;;;;;;32.58;57.16;100935.34;5094306;27;66369;-41
2023/02/15 12:02:45;;;;;;;;;;;;;;;32.59;56.86;100939.72;5094776;27;70266;-40
2023/02/15 12:05:18;;;;;;;;;;;;;;;32.57;57.39;100933.69;5098491;27;66225;-39
2023/02/15 12:08:03;;;;;;;;;;;;;;;32.55;57.29;100930.41;5091677;27;70188;-41
2023/02/15 12:10:38;;;;;;;;;;;;;;;32.53;57.42;100927.06;5101757;27;66258;-40
2023/02/15 12:13:13;;;;;;;;;;;;;;;32.53;56.89;100937.94;5082392;27;69716;-39
2023/02/15 12:15:48;;;;;;;;;;;;;;;32.52;57.20;100947.16;5084764;27;67070;-39
2023/02/15 12:18:21;;;;;;;;;;;;;;;32.52;57.01;100944.44;5086831;27;69022;-42
2023/02/15 12:20:51;;;;;;;;;;;;;;;32.49;56.84;100943.81;5098334;27;66376;-41
2023/02/15 12:23:22;;;;;;;;;;;;;;;32.39;57.74;100938.06;5080462;27;69827;-42
2023/02/15 12:25:54;;;;;;;;;;;;;;;32.26;59.33;100947.25;5097674;27;65329;-40
2023/02/15 12:28:24;;;;;;;;;;;;;;;32.15;59.76;100941.72;5095798;27;69384;-40
2023/02/15 12:30:56;;;;;;;;;;;;;;;32.05;60.36;100945.81;5096628;27;65561;-39
2023/02/15 12:33:40;;;;;;;;;;;;;;;32.00;60.65;100948.38;5093252;27;70795;-40
2023/02/15 12:36:10;;;;;;;;;;;;;;;31.96;60.88;100949.88;5096861;27;66466;-40
2023/02/15 12:38:41;;;;;;;;;;;;;;;31.92;60.75;100943.25;5098233;27;70330;-40
2023/02/15 12:41:20;;;;;;;;;;;;;;;31.89;60.41;100948.28;5097822;27;66222;-41
2023/02/15 12:44:15;;;;;;;;;;;;;;;31.82;60.45;100951.06;5096421;27;70348;-39
2023/02/15 12:47:05;;;;;;;;;;;;;;;31.81;59.85;100946.69;5090794;27;66714;-40
2023/02/15 12:49:37;;;;;;;;;;;;;;;31.77;59.10;100951.72;5097207;27;71169;-39
2023/02/15 12:52:22;;;;;;;;;;;;;;;31.75;57.98;100953.00;5086163;27;65643;-38
2023/02/15 12:55:09;;;;;;;;;;;;;;;31.50;57.63;100928.66;5074727;27;70086;-38
2023/02/15 12:57:39;;;;;;;;;;;;;;;31.66;58.38;100965.22;5092375;27;66673;-38
2023/02/15 13:00:19;;;;;;;;;;;;;;;31.65;59.19;100969.81;5072911;27;69787;-38
2023/02/15 13:02:54;;;;;;;;;;;;;;;31.53;58.23;100966.97;5096064;27;65664;-38
2023/02/15 13:05:42;;;;;;;;;;;;;;;31.31;56.99;100977.34;5096330;27;70384;-39
2023/02/15 13:08:20;;;;;;;;;;;;;;;31.10;55.59;100984.00;5094722;27;66391;-38
2023/02/15 13:10:54;;;;;;;;;;;;;;;30.96;55.33;100997.84;5069501;27;70267;-40
2023/02/15 13:13:28;;;;;;;;;;;;;;;30.84;54.01;100995.84;5096032;27;66486;-39
2023/02/15 13:16:11;;;;;;;;;;;;;;;30.70;53.61;101005.88;5076918;27;70642;-37
2023/02/15 13:18:44;;;;;;;;;;;;;;;30.58;53.46;101013.00;5074927;27;65905;-38
2023/02/15 13:21:34;;;;;;;;;;;;;;;30.46;51.46;101014.72;5092405;27;69917;-37
2023/02/15 13:24:23;;;;;;;;;;;;;;;30.35;50.67;101018.09;5067450;27;66504;-38
2023/02/15 13:26:58;;;;;;;;;;;;;;;30.24;49.36;101023.13;5092313;27;70366;-40
2023/02/15 13:29:44;;;;;;;;;;;;;;;30.16;48.58;101026.03;5083125;27;65451;-38
2023/02/15 13:32:25;;;;;;;;;;;;;;;30.10;51.80;101026.06;5099414;27;69675;-40
2023/02/15 13:35:00;;;;;;;;;;;;;;;30.08;51.95;101036.25;5092439;27;67115;-38
2023/02/15 13:37:52;;;;;;;;;;;;;;;30.03;51.33;101042.28;5098042;27;69829;-39